KCRP/CRP METAR and TAF weather

Enter ICAO airport designator
Station Type Date Time Source
KCRP METAR 2019/02/20 07:51 UTC NOAA

KCRP 200751Z 34016KT 5SM -DZ BR OVC007 08/06 A2992 RMK AO2 SLP131 P0000 T00780061


Station Type Date Time Source
KCRP Decoded METAR 2019/02/20 07:51 UTC NOAA

CORPUS CHRISTI INTERNATIONAL , TX, United States (KCRP) 27-46N 97-31W 16M
Feb 20, 2019 - 02:51 AM EST / 2019.02.20 0751 UTC
Wind: from the NNW (340 degrees) at 18 MPH (16 KT):0
Visibility: 5 mile(s):0
Sky conditions: overcast
Weather: light drizzle; mist
Precipitation last hour: A trace
Temperature: 46.0 F (7.8 C)
Dew Point: 43.0 F (6.1 C)
Relative Humidity: 88%
Pressure (altimeter): 29.92 in. Hg (1013 hPa)
ob: KCRP 200751Z 34016KT 5SM -DZ BR OVC007 08/06 A2992 RMK AO2 SLP131 P0000 T00780061
cycle: 8

Station Type Date Time Source
KCRP TAF 2019/02/20 08:34 UTC NOAA

TAF
AMD KCRP 200732Z 2008/2106 34016KT 6SM -DZ BR OVC007
TEMPO 2008/2009 4SM -DZ BR OVC005
FM201000 35014KT P6SM OVC010
FM201200 36012KT P6SM BKN015 OVC035
FM201500 36010KT P6SM SCT050
FM202100 03009KT P6SM SKC
FM210100 09006KT P6SM SCT050 SCT150


Example: see airport list